Time;durP1;ratioP1;P1;durP2;ratioP2;P2;SDS_P1;SDS_P2;PMS_P1;PMS_P2;Temp;Humidity;BMP_temperature;BMP_pressure;BME280_temperature;BME280_humidity;BME280_pressure;Samples;Min_cycle;Max_cycle;Signal;HPM_P1;HPM_P2
2023/03/21 00:03:16;;;;;;;13.05;11.95;;;;;;;9.42;100.00;100010.22;10486074;28;20098;-72
2023/03/21 00:08:23;;;;;;;13.43;12.43;;;;;;;9.48;100.00;100024.06;10504048;28;20041;-71
2023/03/21 00:13:27;;;;;;;12.27;11.38;;;;;;;9.29;100.00;100023.66;10485837;28;20043;-72
2023/03/21 00:18:29;;;;;;;13.98;12.85;;;;;;;9.41;100.00;100030.34;10484963;28;20044;-71
2023/03/21 00:23:32;;;;;;;13.48;12.23;;;;;;;9.20;100.00;100038.78;10503111;28;20486;-71
2023/03/21 00:28:34;;;;;;;16.83;15.07;;;;;;;9.13;100.00;100045.13;10484524;28;20456;-71
2023/03/21 00:33:37;;;;;;;19.10;17.60;;;;;;;8.97;100.00;100037.63;10483589;28;20079;-72
2023/03/21 00:38:39;;;;;;;18.13;16.48;;;;;;;9.00;100.00;100042.78;10502014;28;20051;-71
2023/03/21 00:43:41;;;;;;;23.30;21.10;;;;;;;8.88;100.00;100039.63;10485419;28;20055;-71
2023/03/21 00:48:43;;;;;;;23.05;20.48;;;;;;;8.81;100.00;100026.69;10484080;28;20044;-72
2023/03/21 00:53:46;;;;;;;22.27;20.38;;;;;;;8.81;100.00;100031.06;10505277;28;20045;-71
2023/03/21 00:58:48;;;;;;;23.92;21.55;;;;;;;8.73;100.00;100028.63;10503213;28;20049;-71
2023/03/21 01:04:01;;;;;;;26.25;23.65;;;;;;;8.64;100.00;100034.09;10485009;28;20040;-71
2023/03/21 01:09:12;;;;;;;24.75;22.40;;;;;;;8.62;100.00;100035.84;10503612;28;20056;-71
2023/03/21 01:14:16;;;;;;;28.20;25.33;;;;;;;8.57;100.00;100032.50;10482929;28;20053;-73
2023/03/21 01:19:28;;;;;;;25.65;22.92;;;;;;;8.99;100.00;100030.59;10483841;28;20041;-72
2023/03/21 01:24:49;;;;;;;25.13;22.75;;;;;;;8.88;100.00;100027.38;10500791;28;20490;-72
2023/03/21 01:30:01;;;;;;;27.10;24.80;;;;;;;8.98;100.00;100028.84;10482512;28;20052;-72
2023/03/21 01:35:09;;;;;;;28.42;25.13;;;;;;;8.76;100.00;100038.16;10501211;28;20032;-72
2023/03/21 01:40:16;;;;;;;30.67;25.50;;;;;;;8.80;100.00;100026.69;10482262;28;20121;-72
2023/03/21 01:45:56;;;;;;;30.27;24.20;;;;;;;8.65;100.00;100034.94;10482691;28;20032;-72
2023/03/21 01:51:06;;;;;;;25.15;22.98;;;;;;;8.74;100.00;100034.72;10481912;28;20135;-72
2023/03/21 01:56:21;;;;;;;26.67;24.50;;;;;;;8.88;100.00;100027.38;10481745;28;20064;-72
2023/03/21 02:01:30;;;;;;;25.88;23.52;;;;;;;8.61;100.00;100025.44;10480800;28;20450;-72
2023/03/21 02:06:57;;;;;;;27.85;25.42;;;;;;;8.60;100.00;100021.94;10480879;28;20131;-72
2023/03/21 02:12:11;;;;;;;25.48;23.35;;;;;;;8.71;100.00;100013.81;10480657;28;20044;-73
2023/03/21 02:17:36;;;;;;;25.30;23.05;;;;;;;8.78;99.25;100018.03;10498996;28;20052;-73
2023/03/21 02:23:09;;;;;;;23.45;21.67;;;;;;;8.68;94.27;100014.78;10480487;28;20094;-72
2023/03/21 02:28:11;;;;;;;23.05;21.10;;;;;;;8.54;93.74;100015.09;10480334;28;20051;-71
2023/03/21 02:33:31;;;;;;;23.38;21.48;;;;;;;8.29;96.24;100011.28;10479976;28;20486;-71
2023/03/21 02:38:48;;;;;;;25.65;23.15;;;;;;;7.99;100.00;100011.06;10498027;28;20048;-72
2023/03/21 02:43:54;;;;;;;26.58;23.90;;;;;;;7.87;100.00;100007.84;10480843;28;20521;-71
2023/03/21 02:48:59;;;;;;;26.77;24.27;;;;;;;7.91;100.00;100012.13;10480845;28;20051;-72
2023/03/21 02:54:07;;;;;;;27.60;25.20;;;;;;;8.01;98.95;100011.91;10501300;28;20037;-71
2023/03/21 02:59:33;;;;;;;26.95;24.73;;;;;;;8.07;97.59;100008.28;10487824;28;20059;-72
2023/03/21 03:04:48;;;;;;;28.10;25.77;;;;;;;7.74;100.00;100012.47;10490043;28;20036;-72
2023/03/21 03:10:06;;;;;;;27.88;25.45;;;;;;;7.60;100.00;100010.13;10487955;28;20119;-72
2023/03/21 03:15:33;;;;;;;29.67;26.63;;;;;;;7.51;100.00;99997.25;10487990;28;20040;-72
2023/03/21 03:20:44;;;;;;;30.00;27.02;;;;;;;7.41;100.00;100000.94;10489387;28;20123;-72
2023/03/21 03:25:52;;;;;;;30.83;28.48;;;;;;;7.37;100.00;100004.50;10506891;28;20045;-71
2023/03/21 03:30:57;;;;;;;29.33;26.98;;;;;;;7.49;100.00;99996.44;10487283;28;20143;-71
2023/03/21 03:36:20;;;;;;;27.52;25.55;;;;;;;7.49;100.00;100002.50;10487222;28;20087;-73
2023/03/21 03:41:45;;;;;;;29.80;27.45;;;;;;;7.44;100.00;100003.50;10486641;28;20094;-72
2023/03/21 03:47:19;;;;;;;35.15;30.70;;;;;;;7.36;100.00;100003.66;10489937;22;20135;-69
2023/03/21 03:52:51;;;;;;;30.88;28.40;;;;;;;7.40;100.00;100002.69;10460585;28;20059;-69
2023/03/21 03:58:01;;;;;;;26.77;24.83;;;;;;;7.38;100.00;100003.59;10459898;28;20099;-69
2023/03/21 04:03:08;;;;;;;29.10;26.40;;;;;;;7.45;100.00;100002.59;10484105;28;20097;-69
2023/03/21 04:08:12;;;;;;;31.05;28.17;;;;;;;7.54;100.00;100003.28;10483641;28;20048;-69
2023/03/21 04:13:17;;;;;;;32.17;28.57;;;;;;;7.68;100.00;100008.22;10485320;28;20041;-69
2023/03/21 04:18:28;;;;;;;31.20;28.10;;;;;;;7.50;100.00;100014.69;10483554;28;20863;-69
2023/03/21 04:23:31;;;;;;;28.38;26.15;;;;;;;7.45;100.00;100018.28;10483496;28;20045;-69
2023/03/21 04:28:34;;;;;;;32.00;29.13;;;;;;;7.55;100.00;100009.38;10466666;28;20052;-69
2023/03/21 04:33:56;;;;;;;32.65;29.40;;;;;;;7.68;100.00;100010.84;10501459;28;20080;-69
2023/03/21 04:39:00;;;;;;;32.72;29.55;;;;;;;7.65;100.00;100012.66;10501505;28;20067;-69
2023/03/21 04:44:03;;;;;;;32.83;29.58;;;;;;;7.70;100.00;100005.56;10482669;28;20045;-68
2023/03/21 04:49:06;;;;;;;33.38;29.90;;;;;;;7.55;100.00;100006.75;10482675;28;20580;-68
2023/03/21 04:54:08;;;;;;;34.90;31.48;;;;;;;7.38;100.00;100011.44;10482054;28;20536;-68
2023/03/21 04:59:13;;;;;;;32.25;28.90;;;;;;;7.45;100.00;100007.84;10482384;28;20040;-68
2023/03/21 05:04:15;;;;;;;24.75;22.55;;;;;;;7.55;100.00;100005.00;10482129;28;20040;-68
2023/03/21 05:09:17;;;;;;;17.40;15.80;;;;;;;7.68;100.00;100002.13;10500137;28;20405;-69
2023/03/21 05:14:23;;;;;;;11.60;10.70;;;;;;;7.69;100.00;100009.09;10481280;28;20051;-69
2023/03/21 05:19:33;;;;;;;10.30;9.07;;;;;;;7.89;99.01;100012.16;10475922;28;20131;-68
2023/03/21 05:24:40;;;;;;;8.32;7.53;;;;;;;7.67;100.00;100014.38;10477788;28;20102;-68
2023/03/21 05:29:47;;;;;;;9.13;8.32;;;;;;;7.73;100.00;100010.75;10477121;28;20041;-68
2023/03/21 05:34:50;;;;;;;8.43;7.75;;;;;;;7.73;100.00;100015.97;10479181;28;20040;-69
2023/03/21 05:39:55;;;;;;;8.90;8.10;;;;;;;7.84;99.37;100014.88;10480695;28;20078;-69
2023/03/21 05:45:02;;;;;;;9.88;8.80;;;;;;;7.62;100.00;100012.75;10479960;28;20047;-69
2023/03/21 05:50:07;;;;;;;9.30;8.50;;;;;;;7.67;100.00;100014.38;10479524;28;20044;-69
2023/03/21 05:55:09;;;;;;;9.52;8.63;;;;;;;7.64;100.00;100013.56;10479834;28;20131;-69
2023/03/21 06:00:12;;;;;;;10.00;9.07;;;;;;;7.81;100.00;100004.47;10479417;28;20052;-69
2023/03/21 06:05:16;;;;;;;9.52;8.50;;;;;;;7.73;100.00;100011.59;10500031;28;20066;-69
2023/03/21 06:10:19;;;;;;;9.07;8.27;;;;;;;7.77;100.00;100012.41;10479596;28;20048;-70
2023/03/21 06:15:23;;;;;;;10.15;9.25;;;;;;;7.83;100.00;100017.50;10479673;28;20041;-69
2023/03/21 06:20:41;;;;;;;9.90;8.60;;;;;;;7.95;100.00;100012.03;10479091;28;20139;-69
2023/03/21 06:25:47;;;;;;;9.98;9.07;;;;;;;7.97;100.00;100011.97;10480226;28;20036;-69
2023/03/21 06:30:49;;;;;;;11.10;9.25;;;;;;;8.15;100.00;100015.97;10484948;28;20048;-69
2023/03/21 06:35:56;;;;;;;9.15;8.32;;;;;;;8.19;97.73;100022.84;10487702;28;20098;-70
2023/03/21 06:40:59;;;;;;;9.57;8.65;;;;;;;8.18;99.31;100032.47;10488171;28;20105;-71
2023/03/21 06:46:05;;;;;;;11.68;8.45;;;;;;;8.20;97.58;100030.69;10487221;28;20037;-70
2023/03/21 06:51:07;;;;;;;10.13;9.13;;;;;;;8.14;99.44;100035.19;10486370;28;20068;-70
2023/03/21 06:56:14;;;;;;;9.93;8.88;;;;;;;8.15;99.76;100032.56;10486387;28;20048;-69
2023/03/21 07:01:17;;;;;;;9.52;8.60;;;;;;;8.38;97.12;100033.81;10486517;28;20068;-69
2023/03/21 07:06:29;;;;;;;10.43;9.43;;;;;;;8.53;96.57;100049.19;10486442;28;20055;-70
2023/03/21 07:11:34;;;;;;;9.43;8.63;;;;;;;8.41;96.62;100039.88;10488079;28;20098;-69
2023/03/21 07:16:37;;;;;;;10.52;9.60;;;;;;;8.54;98.12;100043.91;10485581;28;20441;-69
2023/03/21 07:21:39;;;;;;;9.68;8.73;;;;;;;8.75;96.41;100047.78;10504024;28;20111;-69
2023/03/21 07:26:41;;;;;;;12.38;9.63;;;;;;;8.67;98.62;100043.63;10485671;28;20067;-69
2023/03/21 07:31:42;;;;;;;9.85;8.98;;;;;;;8.70;99.15;100043.53;10486988;28;20059;-69
2023/03/21 07:36:44;;;;;;;10.60;9.60;;;;;;;8.74;96.22;100039.97;10504229;28;20041;-70
2023/03/21 07:41:46;;;;;;;9.65;8.75;;;;;;;8.82;95.83;100043.25;10483794;28;20052;-69
2023/03/21 07:47:02;;;;;;;9.73;8.15;;;;;;;8.88;95.05;100045.72;10484621;28;20044;-69
2023/03/21 07:52:06;;;;;;;9.80;8.80;;;;;;;8.94;93.00;100044.69;10502781;28;20098;-68
2023/03/21 07:57:08;;;;;;;9.93;9.02;;;;;;;8.95;95.31;100044.69;10502143;28;20071;-69
2023/03/21 08:02:15;;;;;;;9.75;8.88;;;;;;;9.30;92.93;100046.41;10501729;28;20044;-69
2023/03/21 08:07:17;;;;;;;8.80;8.00;;;;;;;9.58;90.51;100036.00;10502310;28;20040;-69
2023/03/21 08:12:19;;;;;;;9.88;7.90;;;;;;;9.81;94.72;100037.13;10501554;28;20052;-69
2023/03/21 08:17:21;;;;;;;9.50;8.43;;;;;;;10.23;86.42;100042.03;10502231;28;20082;-69
2023/03/21 08:22:22;;;;;;;8.82;7.97;;;;;;;9.92;89.31;100045.56;10501111;28;20505;-69
2023/03/21 08:27:24;;;;;;;8.25;7.45;;;;;;;9.98;87.00;100041.91;10501140;28;20047;-69
2023/03/21 08:32:30;;;;;;;8.10;7.30;;;;;;;9.96;90.86;100041.06;10502412;28;20039;-69
2023/03/21 08:37:32;;;;;;;7.80;6.95;;;;;;;10.28;84.70;100043.66;10483392;28;20387;-69
2023/03/21 08:42:34;;;;;;;9.95;7.55;;;;;;;10.22;85.37;100045.53;10508011;28;20052;-69
2023/03/21 08:47:36;;;;;;;9.38;7.78;;;;;;;10.07;86.21;100034.59;10531664;28;20556;-69
2023/03/21 08:52:38;;;;;;;7.75;7.05;;;;;;;10.13;89.04;100032.69;10501247;28;20059;-69
2023/03/21 08:57:40;;;;;;;7.72;6.50;;;;;;;10.29;85.98;100034.00;10533231;28;20051;-68
2023/03/21 09:02:44;;;;;;;7.18;6.35;;;;;;;10.46;83.16;100038.72;10489628;28;20055;-68
2023/03/21 09:07:46;;;;;;;6.53;5.93;;;;;;;10.54;85.21;100031.47;10499285;28;20075;-68
2023/03/21 09:12:50;;;;;;;5.60;5.10;;;;;;;10.81;84.53;100037.63;10499152;28;20052;-68
2023/03/21 09:17:53;;;;;;;5.18;4.78;;;;;;;11.21;81.54;100033.66;10499708;28;20040;-69
2023/03/21 09:22:56;;;;;;;5.43;4.53;;;;;;;11.02;81.05;100034.28;10500423;28;20408;-68
2023/03/21 09:27:59;;;;;;;5.05;4.63;;;;;;;11.36;79.84;100028.69;10498962;28;20041;-68
2023/03/21 09:33:05;;;;;;;5.10;4.60;;;;;;;11.26;81.46;100032.56;10499861;28;20059;-68
2023/03/21 09:38:07;;;;;;;5.35;4.43;;;;;;;11.53;77.38;100028.09;10480442;28;20055;-66
2023/03/21 09:43:51;;;;;;;4.82;4.40;;;;;;;11.66;78.36;100019.78;10499712;28;20440;-67
2023/03/21 09:48:56;;;;;;;5.53;5.13;;;;;;;11.47;77.79;100028.34;10530356;22;20043;-72
2023/03/21 09:54:17;;;;;;;5.10;4.70;;;;;;;11.34;78.99;100020.00;10523855;28;20051;-72
2023/03/21 09:59:38;;;;;;;5.45;4.95;;;;;;;11.38;79.62;100012.88;10524145;28;20047;-73
2023/03/21 10:04:42;;;;;;;5.78;5.30;;;;;;;11.70;79.18;100006.44;10580425;28;20035;-73
2023/03/21 10:09:46;;;;;;;5.28;4.78;;;;;;;11.81;76.64;100000.75;10539563;28;20509;-72
2023/03/21 10:14:56;;;;;;;4.43;4.03;;;;;;;11.78;78.50;99993.84;10541530;28;20120;-73
2023/03/21 10:20:15;;;;;;;5.03;4.55;;;;;;;11.81;79.51;99991.06;10540778;28;20036;-72
2023/03/21 10:25:27;;;;;;;5.05;4.50;;;;;;;12.21;77.43;99994.00;10522480;28;20493;-73
2023/03/21 10:30:51;;;;;;;4.60;3.95;;;;;;;12.52;73.61;99986.59;10523344;28;20040;-72
2023/03/21 10:36:00;;;;;;;4.38;3.97;;;;;;;12.68;72.75;99980.69;10541765;28;20051;-72
2023/03/21 10:41:01;;;;;;;5.53;3.75;;;;;;;12.79;73.32;99982.00;10542245;28;20064;-73
2023/03/21 10:46:20;;;;;;;4.78;4.38;;;;;;;13.07;72.36;99976.38;10541881;28;20557;-74
2023/03/21 10:51:27;;;;;;;4.97;4.47;;;;;;;13.12;72.82;99977.03;10543259;28;20051;-73
2023/03/21 10:56:34;;;;;;;3.65;3.35;;;;;;;13.26;69.81;99972.97;10541944;28;20037;-73
2023/03/21 11:01:45;;;;;;;;;;;;;;;13.47;72.21;99965.91;10523480;28;20066;-73
2023/03/21 11:06:56;;;;;;;3.70;3.40;;;;;;;13.39;71.35;99968.88;10521742;28;19920;-74
2023/03/21 11:12:10;;;;;;;3.67;3.38;;;;;;;13.19;70.76;99961.78;10521912;28;20064;-74
2023/03/21 11:17:20;;;;;;;4.22;3.60;;;;;;;13.43;68.28;99959.91;10544157;28;20070;-73
2023/03/21 11:22:26;;;;;;;2.65;2.45;;;;;;;13.49;71.05;99956.97;10528993;28;20044;-74
2023/03/21 11:27:29;;;;;;;3.40;3.10;;;;;;;13.55;71.29;99953.22;10546831;28;20055;-73
2023/03/21 11:32:36;;;;;;;4.47;3.22;;;;;;;14.00;69.15;99944.09;10547418;28;20040;-74
2023/03/21 11:37:45;;;;;;;2.80;2.60;;;;;;;13.69;69.55;99944.66;10546177;28;20063;-73
2023/03/21 11:42:50;;;;;;;4.20;3.20;;;;;;;13.83;69.29;99936.94;10510832;28;20070;-73
2023/03/21 11:47:55;;;;;;;3.33;3.00;;;;;;;13.86;68.83;99931.53;10527543;28;20036;-73
2023/03/21 11:53:29;;;;;;;3.13;2.78;;;;;;;14.58;64.66;99918.34;10527737;28;20568;-73
2023/03/21 11:58:55;;;;;;;2.80;2.60;;;;;;;14.29;67.88;99917.09;10541955;28;20475;-74
2023/03/21 12:04:26;;;;;;;3.17;2.88;;;;;;;14.25;68.67;99915.53;10527819;28;20040;-72
2023/03/21 12:09:43;;;;;;;2.92;2.33;;;;;;;14.36;66.72;99901.78;10546807;28;20512;-72
2023/03/21 12:15:02;;;;;;;2.60;2.38;;;;;;;14.23;69.04;99893.59;10545218;28;20043;-72
2023/03/21 12:20:07;;;;;;;2.70;2.50;;;;;;;14.32;66.03;99887.88;10544664;28;20085;-72
2023/03/21 12:25:26;;;;;;;3.67;2.47;;;;;;;14.68;64.84;99881.69;10544930;28;20119;-72
2023/03/21 12:30:46;;;;;;;2.80;2.35;;;;;;;14.29;67.08;99869.50;10545114;28;20040;-73
2023/03/21 12:35:47;;;;;;;3.67;2.03;;;;;;;14.26;67.16;99866.19;10545040;28;20044;-72
2023/03/21 12:41:08;;;;;;;2.42;2.17;;;;;;;14.03;66.89;99868.16;10543707;28;20040;-72
2023/03/21 12:46:20;;;;;;;2.92;2.25;;;;;;;14.12;67.38;99861.53;10544129;28;20044;-73
2023/03/21 12:51:31;;;;;;;2.53;2.20;;;;;;;14.24;68.14;99853.00;10525701;28;20040;-74
2023/03/21 12:56:40;;;;;;;2.03;1.73;;;;;;;14.62;66.46;99840.53;10543764;28;20490;-73
2023/03/21 13:01:44;;;;;;;2.38;1.60;;;;;;;15.16;61.85;99840.38;10543874;28;20497;-73
2023/03/21 13:06:47;;;;;;;1.95;1.85;;;;;;;14.80;63.04;99829.94;10543540;28;20048;-74
2023/03/21 13:11:55;;;;;;;2.17;1.67;;;;;;;14.81;64.34;99827.19;10542710;28;20059;-73
2023/03/21 13:17:03;;;;;;;2.00;1.60;;;;;;;14.85;65.01;99819.97;10524428;28;20046;-73
2023/03/21 13:22:06;;;;;;;2.42;1.60;;;;;;;15.00;63.90;99810.34;10542350;28;20417;-74
2023/03/21 13:27:32;;;;;;;1.83;1.55;;;;;;;15.50;62.70;99809.41;10524631;28;20040;-73
2023/03/21 13:32:34;;;;;;;2.60;1.73;;;;;;;15.61;62.32;99804.34;10523799;28;20048;-74
2023/03/21 13:37:47;;;;;;;3.22;2.08;;;;;;;15.39;64.48;99794.94;10523799;28;20040;-74
2023/03/21 13:42:53;;;;;;;2.58;1.70;;;;;;;15.16;63.70;99782.13;10526266;28;20370;-75
2023/03/21 13:48:03;;;;;;;2.30;1.63;;;;;;;15.21;62.17;99787.16;10543896;28;20044;-74
2023/03/21 13:53:14;;;;;;;2.25;1.90;;;;;;;15.44;61.72;99783.22;10525190;28;20071;-74
2023/03/21 13:58:48;;;;;;;2.10;1.85;;;;;;;15.46;62.87;99784.03;10544321;28;20040;-74
2023/03/21 14:04:14;;;;;;;2.70;1.67;;;;;;;15.78;59.60;99779.56;10543303;28;20039;-74
2023/03/21 14:09:41;;;;;;;2.53;1.73;;;;;;;15.34;62.95;99772.31;10526469;28;20119;-74
2023/03/21 14:14:55;;;;;;;2.60;2.10;;;;;;;14.96;63.93;99764.66;10526727;28;20405;-73
2023/03/21 14:20:25;;;;;;;2.47;1.40;;;;;;;14.88;65.35;99764.25;10526893;28;20048;-74
2023/03/21 14:25:35;;;;;;;1.73;1.60;;;;;;;15.11;65.27;99739.16;10520126;28;20064;-74
2023/03/21 14:30:54;;;;;;;1.90;1.55;;;;;;;15.12;66.91;99733.78;10510210;28;20054;-74
2023/03/21 14:36:08;;;;;;;2.33;1.23;;;;;;;15.20;67.36;99735.16;10543825;28;20039;-75
2023/03/21 14:41:21;;;;;;;1.63;1.30;;;;;;;15.05;66.82;99727.13;10543356;28;20048;-76
2023/03/21 14:46:24;;;;;;;2.05;1.25;;;;;;;14.85;66.64;99722.06;10533665;28;20048;-74
2023/03/21 14:51:25;;;;;;;2.45;1.38;;;;;;;14.62;68.79;99718.84;10581878;28;20390;-73
2023/03/21 14:56:28;;;;;;;1.58;1.15;;;;;;;15.30;62.37;99709.84;10590359;28;20039;-73
2023/03/21 15:01:33;;;;;;;1.70;1.05;;;;;;;15.18;64.65;99711.38;10572306;28;20096;-74
2023/03/21 15:06:50;;;;;;;2.90;1.42;;;;;;;14.86;66.02;99705.22;10591085;28;20089;-74
2023/03/21 15:11:54;;;;;;;6.50;1.80;;;;;;;14.93;67.79;99703.97;10573937;28;20096;-74
2023/03/21 15:16:59;;;;;;;2.10;1.70;;;;;;;14.79;68.23;99690.66;10592259;28;20044;-73
2023/03/21 15:22:09;;;;;;;1.33;1.23;;;;;;;14.97;66.75;99696.72;10592369;28;20077;-75
2023/03/21 15:27:16;;;;;;;2.05;1.42;;;;;;;14.67;68.43;99697.44;10559010;28;20039;-74
2023/03/21 15:32:21;;;;;;;;;;;;;;;14.87;67.11;99691.94;10593379;28;20059;-74
2023/03/21 15:37:27;;;;;;;2.78;1.60;;;;;;;14.89;67.56;99697.97;10571431;28;19959;-73
2023/03/21 15:42:40;;;;;;;1.88;1.70;;;;;;;14.78;67.15;99689.75;10556530;28;20114;-73
2023/03/21 15:48:00;;;;;;;1.77;1.55;;;;;;;14.50;70.08;99685.13;10556103;28;20130;-74
2023/03/21 15:53:06;;;;;;;5.00;1.70;;;;;;;14.31;72.72;99682.56;10591046;28;20485;-74
2023/03/21 15:58:15;;;;;;;2.10;1.70;;;;;;;14.26;73.54;99686.41;10547553;22;20407;-69
2023/03/21 16:03:22;;;;;;;4.22;1.98;;;;;;;14.35;72.29;99678.84;10501158;28;20049;-70
2023/03/21 16:08:34;;;;;;;41.22;22.42;;;;;;;14.49;70.36;99672.00;10501873;28;20555;-69
2023/03/21 16:13:36;;;;;;;2.45;2.05;;;;;;;14.21;72.41;99669.91;10486774;28;20047;-69
2023/03/21 16:18:38;;;;;;;5.00;2.20;;;;;;;13.90;73.92;99676.81;10522984;28;20055;-70
2023/03/21 16:23:39;;;;;;;2.17;1.83;;;;;;;13.81;73.84;99678.13;10523965;28;20040;-70
2023/03/21 16:28:42;;;;;;;2.10;1.90;;;;;;;13.82;73.29;99679.81;10501123;28;20055;-70
2023/03/21 16:33:44;;;;;;;2.63;2.13;;;;;;;13.89;72.97;99672.44;10533669;28;20484;-70
2023/03/21 16:38:53;;;;;;;2.45;2.10;;;;;;;13.74;73.89;99671.44;10542984;28;20047;-70
2023/03/21 16:43:55;;;;;;;2.58;2.38;;;;;;;13.71;74.53;99662.78;10542517;28;20048;-70
2023/03/21 16:48:57;;;;;;;3.17;2.40;;;;;;;13.60;75.03;99671.28;10542852;28;20513;-69
2023/03/21 16:53:59;;;;;;;4.55;2.70;;;;;;;13.58;75.09;99673.97;10542904;28;20043;-69
2023/03/21 16:59:01;;;;;;;2.88;2.30;;;;;;;13.32;77.05;99677.88;10541696;28;20043;-70
2023/03/21 17:04:02;;;;;;;3.22;2.42;;;;;;;13.35;76.58;99674.25;10542047;28;20036;-69
2023/03/21 17:09:05;;;;;;;3.45;2.72;;;;;;;13.56;75.87;99680.28;10510591;28;20439;-70
2023/03/21 17:14:09;;;;;;;2.80;2.38;;;;;;;13.54;75.87;99677.69;10510483;28;20050;-69
2023/03/21 17:19:16;;;;;;;3.15;2.17;;;;;;;13.48;75.97;99670.09;10519708;28;20052;-69
2023/03/21 17:24:18;;;;;;;3.80;1.98;;;;;;;13.38;76.24;99667.06;10531360;28;20044;-69
2023/03/21 17:29:20;;;;;;;3.53;3.00;;;;;;;13.37;76.15;99670.63;10498602;28;20504;-69
2023/03/21 17:34:22;;;;;;;5.93;5.32;;;;;;;13.22;77.13;99671.34;10498227;28;20048;-69
2023/03/21 17:39:25;;;;;;;2.97;2.78;;;;;;;13.06;78.35;99665.94;10499438;28;20047;-68
2023/03/21 17:44:27;;;;;;;3.63;2.58;;;;;;;13.30;77.24;99668.34;10498106;28;20128;-68
2023/03/21 17:49:29;;;;;;;3.28;2.97;;;;;;;13.07;78.28;99662.38;10498136;28;20047;-68
2023/03/21 17:54:31;;;;;;;3.30;3.10;;;;;;;12.88;79.80;99670.31;10497968;28;20386;-69
2023/03/21 17:59:33;;;;;;;4.28;3.92;;;;;;;13.00;80.05;99662.72;10498416;28;20044;-68
2023/03/21 18:04:34;;;;;;;3.70;3.40;;;;;;;12.99;80.33;99656.59;10479889;28;20400;-68
2023/03/21 18:09:36;;;;;;;4.55;4.15;;;;;;;12.82;81.26;99657.38;10498460;28;20059;-68
2023/03/21 18:14:38;;;;;;;5.40;4.90;;;;;;;12.79;82.15;99657.56;10498268;28;20043;-69
2023/03/21 18:19:41;;;;;;;4.60;4.03;;;;;;;12.65;83.39;99653.81;10497195;28;20561;-68
2023/03/21 18:24:45;;;;;;;4.72;4.32;;;;;;;12.61;83.43;99664.50;10500076;28;20040;-68
2023/03/21 18:29:47;;;;;;;4.80;4.40;;;;;;;12.59;84.28;99655.81;10506052;28;20060;-68
2023/03/21 18:35:15;;;;;;;5.57;5.07;;;;;;;12.30;85.79;99657.13;10505729;28;20474;-68
2023/03/21 18:40:20;;;;;;;4.88;4.47;;;;;;;12.14;87.60;99658.75;10505502;28;20040;-68
2023/03/21 18:45:24;;;;;;;4.93;4.47;;;;;;;12.02;88.31;99657.50;10505648;28;20040;-68
2023/03/21 18:50:26;;;;;;;4.35;3.97;;;;;;;11.96;88.51;99655.16;10504913;28;20066;-68
2023/03/21 18:55:28;;;;;;;5.15;4.65;;;;;;;11.98;89.00;99655.09;10504768;28;20055;-68
2023/03/21 19:00:46;;;;;;;4.75;4.35;;;;;;;11.90;89.95;99655.41;10504692;28;20048;-68
2023/03/21 19:05:48;;;;;;;6.40;5.90;;;;;;;12.18;90.66;99672.66;10486394;28;20040;-69
2023/03/21 19:10:50;;;;;;;6.15;5.65;;;;;;;12.04;89.36;99660.94;10504067;28;20124;-68
2023/03/21 19:15:52;;;;;;;6.30;5.80;;;;;;;11.75;92.11;99653.41;10504152;28;20075;-68
2023/03/21 19:20:57;;;;;;;7.03;6.43;;;;;;;11.69;92.99;99657.16;10504076;28;20044;-69
2023/03/21 19:25:59;;;;;;;6.93;6.43;;;;;;;11.42;94.61;99661.81;10504906;28;20041;-69
2023/03/21 19:31:06;;;;;;;6.97;6.35;;;;;;;11.46;94.89;99668.63;10485688;28;20501;-69
2023/03/21 19:36:07;;;;;;;;;;;;;;;11.48;94.20;99666.81;10502896;28;20413;-69
2023/03/21 19:41:22;;;;;;;6.80;6.28;;;;;;;11.12;96.43;99661.28;10503776;28;19920;-69
2023/03/21 19:46:25;;;;;;;7.07;6.40;;;;;;;10.89;97.97;99651.66;10525594;28;20102;-69
2023/03/21 19:51:26;;;;;;;7.43;6.82;;;;;;;10.72;98.71;99652.31;10521360;28;20062;-69
2023/03/21 19:56:31;;;;;;;6.78;6.18;;;;;;;10.66;99.23;99652.53;10539478;28;20115;-67
2023/03/21 20:01:33;;;;;;;6.20;5.70;;;;;;;10.65;99.16;99655.22;10520231;28;20064;-69
2023/03/21 20:06:35;;;;;;;6.07;5.53;;;;;;;10.64;99.42;99651.75;10514658;28;20036;-70
2023/03/21 20:11:37;;;;;;;5.88;5.38;;;;;;;10.67;98.59;99661.28;10522912;28;20049;-70
2023/03/21 20:16:40;;;;;;;5.15;4.65;;;;;;;10.71;97.96;99654.97;10529380;28;20028;-70
2023/03/21 20:21:44;;;;;;;5.10;4.57;;;;;;;10.76;95.98;99664.44;10545245;28;20040;-69
2023/03/21 20:26:55;;;;;;;5.43;4.72;;;;;;;10.85;95.36;99665.84;10483885;28;20045;-69
2023/03/21 20:31:58;;;;;;;5.15;4.65;;;;;;;10.87;94.75;99669.25;10502337;28;20055;-69
2023/03/21 20:37:01;;;;;;;4.50;4.10;;;;;;;10.86;95.23;99664.94;10502809;28;20032;-70
2023/03/21 20:42:03;;;;;;;4.70;4.30;;;;;;;10.85;95.14;99663.22;10526334;28;20040;-68
2023/03/21 20:47:06;;;;;;;5.10;4.60;;;;;;;10.81;95.03;99661.63;10542216;28;20040;-69
2023/03/21 20:52:08;;;;;;;5.30;4.05;;;;;;;10.76;95.24;99666.19;10542435;28;20089;-69
2023/03/21 20:57:30;;;;;;;3.33;3.03;;;;;;;10.84;93.89;99666.75;10542965;28;20078;-68
2023/03/21 21:02:32;;;;;;;4.15;2.50;;;;;;;10.99;90.76;99663.53;10510367;28;20048;-70
2023/03/21 21:07:34;;;;;;;4.32;2.92;;;;;;;11.07;89.52;99663.22;10506217;28;20400;-70
2023/03/21 21:12:38;;;;;;;3.20;2.30;;;;;;;11.17;88.55;99674.25;10541572;28;20036;-69
2023/03/21 21:17:40;;;;;;;3.33;2.45;;;;;;;11.17;88.29;99669.84;10522736;28;20072;-69
2023/03/21 21:23:01;;;;;;;4.38;2.70;;;;;;;11.42;85.23;99671.44;10499526;28;20094;-68
2023/03/21 21:28:07;;;;;;;4.30;2.53;;;;;;;11.76;81.68;99684.94;10481378;28;20037;-69
2023/03/21 21:33:09;;;;;;;6.87;3.10;;;;;;;11.84;79.80;99689.91;10506013;28;20115;-69
2023/03/21 21:38:12;;;;;;;3.65;3.17;;;;;;;11.63;82.19;99695.13;10542909;28;20135;-70
2023/03/21 21:43:17;;;;;;;4.22;2.97;;;;;;;11.49;83.56;99688.72;10541741;28;20051;-69
2023/03/21 21:48:19;;;;;;;4.68;2.97;;;;;;;11.57;83.57;99691.91;10542220;28;20035;-69
2023/03/21 21:53:21;;;;;;;5.60;4.43;;;;;;;11.45;85.55;99695.88;10522946;28;20040;-70
2023/03/21 21:58:24;;;;;;;7.18;5.10;;;;;;;11.36;88.46;99691.00;10545643;22;20102;-75
2023/03/21 22:03:26;;;;;;;9.05;6.07;;;;;;;11.44;88.85;99698.59;10485430;28;20106;-75
2023/03/21 22:08:28;;;;;;;7.60;4.88;;;;;;;11.97;85.70;99706.06;10486476;28;20040;-75
2023/03/21 22:13:33;;;;;;;4.47;3.58;;;;;;;11.65;87.34;99708.25;10503042;28;20091;-74
2023/03/21 22:18:37;;;;;;;5.30;4.13;;;;;;;11.72;88.98;99707.03;10502563;28;20041;-75
2023/03/21 22:23:40;;;;;;;5.03;4.40;;;;;;;11.60;91.48;99707.56;10466928;28;20071;-79
2023/03/21 22:28:42;;;;;;;4.57;4.05;;;;;;;11.50;91.84;99700.94;10501292;28;20139;-77
2023/03/21 22:33:44;;;;;;;4.45;3.97;;;;;;;11.28;95.71;99703.59;10484670;28;20048;-75
2023/03/21 22:38:46;;;;;;;6.32;4.85;;;;;;;11.06;100.00;99707.06;10504105;28;20040;-76
2023/03/21 22:43:48;;;;;;;5.47;4.97;;;;;;;10.89;100.00;99706.88;10484958;28;20054;-75
2023/03/21 22:48:50;;;;;;;4.80;4.40;;;;;;;10.95;100.00;99703.16;10503901;28;20040;-76
2023/03/21 22:53:52;;;;;;;6.32;4.90;;;;;;;10.80;100.00;99707.22;10502538;28;20048;-76
2023/03/21 22:58:56;;;;;;;5.30;4.28;;;;;;;10.83;100.00;99705.31;10483987;28;20041;-75
2023/03/21 23:03:57;;;;;;;5.78;5.28;;;;;;;10.76;100.00;99701.22;10502470;28;20053;-75
2023/03/21 23:08:59;;;;;;;5.57;4.65;;;;;;;10.68;100.00;99694.53;10484766;28;20070;-76
2023/03/21 23:14:02;;;;;;;6.30;5.10;;;;;;;10.62;100.00;99685.09;10491949;28;20504;-76
2023/03/21 23:19:09;;;;;;;5.35;4.85;;;;;;;10.70;100.00;99688.31;10510073;28;20124;-76
2023/03/21 23:24:11;;;;;;;5.38;4.85;;;;;;;10.66;100.00;99685.84;10491949;28;20559;-75
2023/03/21 23:29:13;;;;;;;5.78;5.28;;;;;;;10.70;100.00;99680.41;10507985;28;20040;-76
2023/03/21 23:34:15;;;;;;;5.47;4.93;;;;;;;10.64;100.00;99671.91;10507531;28;20040;-76
2023/03/21 23:39:19;;;;;;;5.88;5.00;;;;;;;10.73;100.00;99677.69;10488617;28;20049;-76